createdAt,value
2022-12-05T00:01:25.559Z,3.54
2022-12-05T00:03:55.125Z,3.54
2022-12-05T00:06:22.734Z,3.53
2022-12-05T00:08:50.276Z,3.55
2022-12-05T00:11:19.655Z,3.56
2022-12-05T00:13:48.192Z,3.54
2022-12-05T00:16:17.926Z,3.49
2022-12-05T00:18:45.165Z,3.42
2022-12-05T00:21:14.634Z,3.46
2022-12-05T00:23:42.235Z,3.46
2022-12-05T00:26:09.453Z,3.47
2022-12-05T00:28:36.728Z,3.56
2022-12-05T00:31:09.671Z,3.62
2022-12-05T00:33:36.620Z,3.58
2022-12-05T00:36:10.258Z,3.53
2022-12-05T00:38:37.000Z,3.47
2022-12-05T00:41:05.258Z,3.48
2022-12-05T00:43:32.790Z,3.49
2022-12-05T00:46:15.041Z,3.51
2022-12-05T00:48:42.442Z,3.47
2022-12-05T00:51:11.044Z,3.54
2022-12-05T00:53:38.372Z,3.59
2022-12-05T00:56:12.912Z,3.57
2022-12-05T00:58:40.571Z,3.58
2022-12-05T01:01:25.086Z,3.53
2022-12-05T01:03:54.469Z,3.53
2022-12-05T01:06:21.619Z,3.54
2022-12-05T01:08:48.544Z,3.56
2022-12-05T01:11:17.086Z,3.54
2022-12-05T01:13:43.832Z,3.53
2022-12-05T01:16:16.593Z,3.51
2022-12-05T01:18:43.438Z,3.50
2022-12-05T01:21:10.610Z,3.53
2022-12-05T01:23:37.561Z,3.50
2022-12-05T01:26:09.781Z,3.51
2022-12-05T01:28:37.002Z,3.47
2022-12-05T01:31:06.877Z,3.45
2022-12-05T01:33:34.837Z,3.43
2022-12-05T01:36:03.197Z,3.43
2022-12-05T01:38:29.856Z,3.46
2022-12-05T01:41:04.347Z,3.45
2022-12-05T01:43:31.752Z,3.48
2022-12-05T01:45:58.650Z,3.52
2022-12-05T01:48:32.643Z,3.50
2022-12-05T01:51:00.638Z,3.48
2022-12-05T01:53:29.377Z,3.49
2022-12-05T01:55:57.203Z,3.50
2022-12-05T01:58:31.461Z,3.48
2022-12-05T02:00:58.517Z,3.49
2022-12-05T02:03:25.534Z,3.54
2022-12-05T02:05:54.185Z,3.58
2022-12-05T02:08:21.411Z,3.61
2022-12-05T02:10:56.149Z,3.59
2022-12-05T02:14:00.824Z,3.61
2022-12-05T02:16:40.018Z,3.56
2022-12-05T02:19:21.937Z,3.50
2022-12-05T02:22:13.190Z,3.43
2022-12-05T02:25:01.258Z,3.44
2022-12-05T02:27:44.061Z,3.43
2022-12-05T02:30:16.470Z,3.46
2022-12-05T02:33:22.772Z,3.51
2022-12-05T02:36:06.514Z,3.53
2022-12-05T02:38:44.947Z,3.52
2022-12-05T02:41:31.457Z,3.53
2022-12-05T02:44:05.540Z,3.51
2022-12-05T02:46:36.615Z,3.47
2022-12-05T02:49:08.316Z,3.47
2022-12-05T02:51:40.988Z,3.50
2022-12-05T02:54:12.539Z,3.53
2022-12-05T02:56:43.768Z,3.52
2022-12-05T02:59:10.677Z,3.53
2022-12-05T03:01:37.499Z,3.52
2022-12-05T03:04:07.806Z,3.51
2022-12-05T03:06:41.604Z,3.48
2022-12-05T03:09:14.571Z,3.47
2022-12-05T03:11:47.575Z,3.46
2022-12-05T03:14:22.704Z,3.47
2022-12-05T03:16:52.180Z,3.49
2022-12-05T03:19:26.684Z,3.54
2022-12-05T03:22:01.171Z,3.58
2022-12-05T03:24:28.653Z,3.60
2022-12-05T03:27:17.154Z,3.59
2022-12-05T03:30:02.048Z,3.59
2022-12-05T03:32:53.658Z,3.61
2022-12-05T03:35:30.878Z,3.63
2022-12-05T03:38:13.249Z,3.61
2022-12-05T03:41:00.463Z,3.57
2022-12-05T03:43:37.929Z,3.61
2022-12-05T03:46:12.603Z,3.63
2022-12-05T03:48:55.100Z,3.66
2022-12-05T03:51:26.870Z,3.71
2022-12-05T03:54:02.502Z,3.66
2022-12-05T03:56:42.510Z,3.64
2022-12-05T03:59:23.627Z,3.66
2022-12-05T04:01:53.492Z,3.65
2022-12-05T04:05:06.970Z,3.65
2022-12-05T04:07:38.103Z,3.65
2022-12-05T04:10:18.572Z,3.63
2022-12-05T04:12:46.746Z,3.63
2022-12-05T04:15:23.729Z,3.61
2022-12-05T04:17:56.955Z,3.62
2022-12-05T04:20:45.706Z,3.68
2022-12-05T04:23:12.621Z,3.74
2022-12-05T04:25:51.322Z,3.73
2022-12-05T04:28:35.673Z,3.73
2022-12-05T04:31:11.974Z,3.71
2022-12-05T04:33:50.455Z,3.70
2022-12-05T04:36:32.982Z,3.70
2022-12-05T04:39:10.697Z,3.62
2022-12-05T04:41:50.604Z,3.58
2022-12-05T04:44:21.924Z,3.58
2022-12-05T04:46:50.410Z,3.58
2022-12-05T04:49:21.854Z,3.53
2022-12-05T04:51:53.041Z,3.55
2022-12-05T04:54:24.602Z,3.59
2022-12-05T04:57:00.902Z,3.58
2022-12-05T04:59:28.105Z,3.55
2022-12-05T05:02:00.461Z,3.54
2022-12-05T05:04:33.728Z,3.58
2022-12-05T05:07:06.865Z,3.58
2022-12-05T05:09:33.972Z,3.59
2022-12-05T05:12:00.857Z,3.63
2022-12-05T05:14:27.745Z,3.66
2022-12-05T05:16:54.572Z,3.68
2022-12-05T05:19:21.335Z,3.67
2022-12-05T05:21:48.784Z,3.66
2022-12-05T05:24:15.603Z,3.63
2022-12-05T05:26:44.347Z,3.64
2022-12-05T05:29:12.087Z,3.62
2022-12-05T05:31:39.722Z,3.63
2022-12-05T05:34:09.650Z,3.63
2022-12-05T05:36:37.643Z,3.61
2022-12-05T05:39:06.789Z,3.62
2022-12-05T05:41:36.075Z,3.64
2022-12-05T05:44:04.190Z,3.65
2022-12-05T05:46:33.678Z,3.68
2022-12-05T05:49:00.657Z,3.69
2022-12-05T05:51:29.231Z,3.72
2022-12-05T05:53:57.818Z,3.72
2022-12-05T05:56:25.049Z,3.71
2022-12-05T05:58:59.758Z,3.74
2022-12-05T06:01:27.728Z,3.73
2022-12-05T06:03:54.792Z,3.68
2022-12-05T06:06:22.291Z,3.66
2022-12-05T06:08:49.597Z,3.69
2022-12-05T06:11:26.189Z,3.68
2022-12-05T06:14:00.989Z,3.63
2022-12-05T06:16:29.695Z,3.58
2022-12-05T06:18:56.932Z,3.58
2022-12-05T06:21:24.355Z,3.58
2022-12-05T06:23:51.100Z,3.61
2022-12-05T06:26:20.839Z,3.63
2022-12-05T06:28:47.892Z,3.64
2022-12-05T06:31:18.190Z,3.65
2022-12-05T06:33:45.486Z,3.64
2022-12-05T06:36:15.070Z,3.67
2022-12-05T06:38:42.654Z,3.69
2022-12-05T06:41:13.444Z,3.70
2022-12-05T06:43:40.250Z,3.68
2022-12-05T06:46:08.479Z,3.70
2022-12-05T06:48:36.072Z,3.72
2022-12-05T06:51:03.381Z,3.78
2022-12-05T06:53:30.220Z,3.74
2022-12-05T06:55:58.591Z,3.66
2022-12-05T06:58:25.857Z,3.62
2022-12-05T07:01:13.592Z,3.65
2022-12-05T07:03:40.670Z,3.68
2022-12-05T07:06:07.913Z,3.69
2022-12-05T07:08:35.289Z,3.68
2022-12-05T07:11:02.982Z,3.69
2022-12-05T07:13:29.771Z,3.71
2022-12-05T07:15:58.438Z,3.72
2022-12-05T07:18:26.261Z,3.74
2022-12-05T07:21:16.854Z,3.77
2022-12-05T07:23:46.283Z,3.80
2022-12-05T07:26:19.397Z,3.83
2022-12-05T07:28:47.306Z,3.80
2022-12-05T07:31:17.754Z,3.82
2022-12-05T07:33:45.003Z,3.84
2022-12-05T07:36:17.374Z,3.85
2022-12-05T07:38:44.654Z,3.85
2022-12-05T07:41:23.167Z,3.84
2022-12-05T07:43:54.755Z,3.77
2022-12-05T07:46:21.711Z,3.77
2022-12-05T07:48:49.698Z,3.85
2022-12-05T07:51:17.950Z,3.90
2022-12-05T07:53:45.329Z,3.89
2022-12-05T07:56:17.143Z,3.87
2022-12-05T07:58:46.045Z,3.90
2022-12-05T08:01:15.757Z,3.90
2022-12-05T08:03:43.635Z,3.84
2022-12-05T08:06:30.063Z,3.82
2022-12-05T08:08:57.767Z,3.86
2022-12-05T08:11:35.925Z,3.92
2022-12-05T08:14:04.517Z,3.93
2022-12-05T08:16:32.480Z,3.94
2022-12-05T08:19:05.110Z,3.95
2022-12-05T08:21:32.683Z,3.92
2022-12-05T08:23:59.568Z,3.98
2022-12-05T08:26:29.330Z,4.03
2022-12-05T08:29:13.327Z,4.03
2022-12-05T08:31:43.695Z,4.01
2022-12-05T08:34:13.133Z,3.99
2022-12-05T08:36:40.198Z,3.97
2022-12-05T08:39:09.588Z,3.98
2022-12-05T08:41:36.359Z,4.01
2022-12-05T08:44:05.749Z,4.07
2022-12-05T08:46:34.324Z,4.08
2022-12-05T08:49:02.115Z,4.07
2022-12-05T08:51:28.848Z,4.08
2022-12-05T08:53:56.424Z,4.10
2022-12-05T08:56:27.236Z,4.12
2022-12-05T08:59:01.193Z,4.11
2022-12-05T09:01:32.129Z,4.09
2022-12-05T09:04:04.529Z,4.12
2022-12-05T09:06:32.416Z,4.10
2022-12-05T09:09:01.194Z,4.10
2022-12-05T09:11:30.529Z,4.10
2022-12-05T09:13:59.307Z,4.08
2022-12-05T09:16:35.125Z,4.09
2022-12-05T09:19:04.736Z,4.11
2022-12-05T09:21:32.830Z,4.14
2022-12-05T09:24:00.807Z,4.16
2022-12-05T09:26:29.984Z,4.18
2022-12-05T09:28:57.075Z,4.20
2022-12-05T09:31:26.970Z,4.30
2022-12-05T09:33:54.267Z,4.33
2022-12-05T09:36:26.730Z,4.36
2022-12-05T09:38:54.408Z,4.37
2022-12-05T09:41:44.299Z,4.40
2022-12-05T09:44:39.507Z,4.39
2022-12-05T09:47:21.359Z,4.40
2022-12-05T09:50:10.120Z,4.38
2022-12-05T09:52:41.343Z,4.35
2022-12-05T09:55:14.368Z,4.39
2022-12-05T09:57:48.318Z,4.42
2022-12-05T10:00:15.574Z,4.54
2022-12-05T10:03:07.044Z,4.76
2022-12-05T10:05:58.261Z,4.75
2022-12-05T10:08:32.616Z,4.75
2022-12-05T10:11:08.225Z,4.68
2022-12-05T10:14:02.892Z,4.72
2022-12-05T10:16:35.014Z,4.85
2022-12-05T10:19:12.947Z,4.83
2022-12-05T10:22:00.989Z,4.83
2022-12-05T10:24:38.204Z,4.89
2022-12-05T10:27:14.734Z,4.96
2022-12-05T10:29:50.845Z,5.03
2022-12-05T10:32:40.393Z,5.04
2022-12-05T10:35:25.175Z,5.02
2022-12-05T10:38:31.204Z,5.06
2022-12-05T10:41:01.361Z,5.06
2022-12-05T10:43:31.054Z,5.05
2022-12-05T10:45:59.089Z,5.06
2022-12-05T10:48:29.223Z,5.09
2022-12-05T10:50:58.029Z,5.10
2022-12-05T10:53:29.315Z,5.08
2022-12-05T10:58:58.016Z,5.14
2022-12-05T11:01:26.502Z,5.21
2022-12-05T11:04:00.401Z,5.25
2022-12-05T11:06:30.345Z,5.26
2022-12-05T11:09:33.588Z,5.34
2022-12-05T11:12:03.039Z,5.45
2022-12-05T11:14:30.306Z,5.67
2022-12-05T11:17:00.216Z,5.84
2022-12-05T11:19:38.358Z,5.93
2022-12-05T11:22:07.983Z,5.88
2022-12-05T11:24:37.746Z,5.84
2022-12-05T11:27:16.595Z,5.86
2022-12-05T11:29:56.537Z,5.90
2022-12-05T11:32:26.861Z,5.95
2022-12-05T11:34:56.963Z,5.93
2022-12-05T11:37:35.721Z,5.88
2022-12-05T11:40:12.376Z,5.88
2022-12-05T11:42:56.986Z,5.88
2022-12-05T11:45:45.580Z,5.96
2022-12-05T11:48:18.056Z,5.98
2022-12-05T11:50:47.802Z,5.99
2022-12-05T11:53:26.913Z,5.99
2022-12-05T11:56:26.787Z,6.00
2022-12-05T11:59:02.284Z,6.03
2022-12-05T12:01:38.119Z,6.02
2022-12-05T12:04:26.343Z,6.10
2022-12-05T12:07:24.008Z,6.19
2022-12-05T12:10:23.047Z,6.21
2022-12-05T12:13:01.960Z,6.21
2022-12-05T12:15:46.623Z,6.32
2022-12-05T12:18:41.388Z,6.38
2022-12-05T12:21:18.441Z,6.54
2022-12-05T12:24:14.205Z,6.62
2022-12-05T12:26:46.976Z,6.63
2022-12-05T12:29:44.883Z,6.67
2022-12-05T12:32:27.254Z,6.65
2022-12-05T12:35:04.489Z,6.58
2022-12-05T12:37:47.781Z,6.61
2022-12-05T12:40:39.700Z,6.54
2022-12-05T12:43:55.790Z,6.47
2022-12-05T12:46:45.303Z,6.40
2022-12-05T12:49:45.985Z,6.42
2022-12-05T12:52:22.066Z,6.41
2022-12-05T12:55:04.394Z,6.44
2022-12-05T12:58:02.823Z,6.44
2022-12-05T13:00:40.880Z,6.54
2022-12-05T13:03:22.692Z,6.54
2022-12-05T13:06:00.842Z,6.54
2022-12-05T13:09:07.354Z,6.49
2022-12-05T13:11:37.823Z,6.44
2022-12-05T13:14:11.925Z,6.42
2022-12-05T13:16:46.124Z,6.53
2022-12-05T13:19:25.194Z,6.67
2022-12-05T13:21:53.057Z,6.67
2022-12-05T13:24:23.638Z,6.62
2022-12-05T13:26:50.596Z,6.59
2022-12-05T13:29:27.985Z,6.50
2022-12-05T13:31:55.030Z,6.49
2022-12-05T13:34:31.019Z,6.56
2022-12-05T13:37:17.560Z,6.58
2022-12-05T13:40:15.259Z,6.54
2022-12-05T13:42:43.259Z,6.47
2022-12-05T13:45:19.762Z,6.54
2022-12-05T13:47:56.059Z,6.53
2022-12-05T13:50:51.654Z,6.54
2022-12-05T13:53:40.762Z,6.69
2022-12-05T13:56:26.425Z,6.64
2022-12-05T13:58:55.918Z,6.47
2022-12-05T14:01:37.006Z,6.54
2022-12-05T14:04:22.820Z,6.37
2022-12-05T14:06:52.622Z,6.40
2022-12-05T14:09:19.277Z,6.51
2022-12-05T14:12:11.170Z,6.59
2022-12-05T14:15:00.521Z,6.63
2022-12-05T14:17:43.161Z,6.70
2022-12-05T14:20:30.323Z,6.66
2022-12-05T14:23:09.543Z,6.64
2022-12-05T14:25:58.882Z,6.58
2022-12-05T14:28:45.770Z,6.60
2022-12-05T14:31:41.670Z,6.65
2022-12-05T14:34:24.713Z,6.52
2022-12-05T14:36:54.977Z,6.33
2022-12-05T14:43:43.515Z,6.18
2022-12-05T14:46:28.865Z,6.16
2022-12-05T14:48:56.318Z,6.14
2022-12-05T14:51:32.251Z,6.13
2022-12-05T14:54:13.576Z,6.13
2022-12-05T14:56:43.144Z,6.17
2022-12-05T14:59:31.714Z,6.18
2022-12-05T15:02:01.740Z,6.12
2022-12-05T15:04:46.362Z,6.12
2022-12-05T15:07:34.315Z,6.11
2022-12-05T15:10:08.353Z,6.06
2022-12-05T15:12:44.431Z,6.03
2022-12-05T15:15:17.338Z,6.00
2022-12-05T15:17:52.104Z,5.99
2022-12-05T15:20:38.841Z,5.95
2022-12-05T15:23:46.142Z,5.93
2022-12-05T15:26:45.451Z,5.92
2022-12-05T15:29:29.040Z,5.89
2022-12-05T15:32:03.515Z,5.84
2022-12-05T15:34:36.948Z,5.85
2022-12-05T15:37:15.804Z,5.81
2022-12-05T15:40:03.817Z,5.81
2022-12-05T15:42:36.701Z,5.80
2022-12-05T15:45:16.139Z,5.76
2022-12-05T15:47:44.959Z,5.76
2022-12-05T15:50:35.784Z,5.75
2022-12-05T15:53:15.109Z,5.78
2022-12-05T15:55:55.736Z,5.75
2022-12-05T15:58:45.944Z,5.74
2022-12-05T16:01:20.890Z,5.69
2022-12-05T16:03:47.637Z,5.69
2022-12-05T16:06:22.505Z,5.69
2022-12-05T16:08:50.461Z,5.68
2022-12-05T16:11:18.297Z,5.69
2022-12-05T16:13:48.491Z,5.73
2022-12-05T16:16:25.066Z,5.73
2022-12-05T16:18:58.460Z,5.69
2022-12-05T16:21:39.101Z,5.69
2022-12-05T16:24:21.526Z,5.68
2022-12-05T16:26:59.976Z,5.66
2022-12-05T16:29:32.871Z,5.60
2022-12-05T16:32:13.228Z,5.59
2022-12-05T16:34:40.259Z,5.62
2022-12-05T16:37:18.772Z,5.60
2022-12-05T16:39:46.137Z,5.61
2022-12-05T16:42:27.026Z,5.60
2022-12-05T16:45:02.952Z,5.62
2022-12-05T16:47:42.080Z,5.60
2022-12-05T16:50:31.259Z,5.59
2022-12-05T16:53:03.452Z,5.53
2022-12-05T16:55:36.731Z,5.50
2022-12-05T16:58:05.016Z,5.51
2022-12-05T17:00:33.023Z,5.54
2022-12-05T17:03:25.716Z,5.53
2022-12-05T17:05:46.472Z,5.50
2022-12-05T17:08:13.449Z,5.45
2022-12-05T17:10:41.893Z,5.41
2022-12-05T17:13:14.326Z,5.39
2022-12-05T17:15:41.480Z,5.39
2022-12-05T17:18:14.044Z,5.45
2022-12-05T17:20:43.451Z,5.43
2022-12-05T17:23:14.758Z,5.40
2022-12-05T17:25:52.502Z,5.38
2022-12-05T17:28:19.818Z,5.38
2022-12-05T17:30:46.667Z,5.37
2022-12-05T17:33:15.833Z,5.31
2022-12-05T17:35:42.957Z,5.25
2022-12-05T17:38:10.690Z,5.19
2022-12-05T17:40:38.846Z,5.17
2022-12-05T17:43:06.184Z,5.19
2022-12-05T17:45:33.412Z,5.19
2022-12-05T17:48:00.361Z,5.20
2022-12-05T17:50:27.878Z,5.18
2022-12-05T17:52:56.950Z,5.20
2022-12-05T17:55:28.875Z,5.20
2022-12-05T17:57:55.916Z,5.17
2022-12-05T18:00:24.285Z,5.13
2022-12-05T18:02:52.646Z,5.11
2022-12-05T18:05:20.042Z,5.09
2022-12-05T18:07:47.267Z,5.05
2022-12-05T18:10:17.636Z,5.08
2022-12-05T18:12:45.025Z,5.12
2022-12-05T18:15:12.657Z,5.20
2022-12-05T18:17:39.364Z,5.24
2022-12-05T18:20:08.371Z,5.18
2022-12-05T18:22:35.466Z,5.09
2022-12-05T18:25:03.415Z,5.04
2022-12-05T18:27:30.585Z,5.00
2022-12-05T18:29:57.597Z,5.00
2022-12-05T18:32:24.588Z,5.01
2022-12-05T18:34:51.295Z,5.03
2022-12-05T18:37:18.714Z,5.05
2022-12-05T18:39:45.629Z,5.05
2022-12-05T18:42:15.232Z,5.00
2022-12-05T18:44:42.952Z,4.93
2022-12-05T18:47:09.603Z,4.92
2022-12-05T18:49:36.719Z,4.93
2022-12-05T18:52:03.605Z,4.91
2022-12-05T18:54:30.542Z,4.89
2022-12-05T18:56:57.806Z,4.96
2022-12-05T18:59:25.622Z,4.97
2022-12-05T19:01:52.451Z,4.98
2022-12-05T19:04:21.303Z,4.97
2022-12-05T19:06:59.186Z,4.93
2022-12-05T19:09:31.120Z,4.94
2022-12-05T19:11:59.483Z,4.98
2022-12-05T19:14:30.427Z,5.03
2022-12-05T19:17:00.217Z,5.07
2022-12-05T19:19:28.040Z,5.08
2022-12-05T19:21:55.045Z,5.09
2022-12-05T19:24:21.926Z,5.13
2022-12-05T19:26:48.767Z,5.19
2022-12-05T19:29:16.012Z,5.20
2022-12-05T19:31:43.833Z,5.18
2022-12-05T19:34:10.833Z,5.17
2022-12-05T19:36:45.482Z,5.13
2022-12-05T19:39:19.619Z,5.12
2022-12-05T19:41:46.509Z,5.13
2022-12-05T19:44:13.696Z,5.16
2022-12-05T19:46:40.940Z,5.18
2022-12-05T19:49:11.911Z,5.16
2022-12-05T19:51:38.721Z,5.17
2022-12-05T19:54:07.055Z,5.16
2022-12-05T19:56:35.367Z,5.14
2022-12-05T19:59:02.570Z,5.10
2022-12-05T20:01:38.795Z,5.03
2022-12-05T20:04:10.419Z,5.01
2022-12-05T20:06:40.229Z,4.98
2022-12-05T20:09:08.615Z,4.96
2022-12-05T20:11:38.579Z,4.92
2022-12-05T20:14:06.085Z,4.85
2022-12-05T20:16:33.897Z,4.79
2022-12-05T20:19:00.668Z,4.76
2022-12-05T20:21:29.963Z,4.64
2022-12-05T20:23:59.618Z,4.55
2022-12-05T20:26:36.129Z,4.46
2022-12-05T20:29:05.377Z,4.43
2022-12-05T20:31:54.143Z,4.41
2022-12-05T20:34:20.889Z,4.37
2022-12-05T20:36:47.932Z,4.38
2022-12-05T20:39:16.694Z,4.36
2022-12-05T20:41:44.370Z,4.34
2022-12-05T20:44:14.923Z,4.30
2022-12-05T20:46:42.772Z,4.31
2022-12-05T20:49:09.782Z,4.31
2022-12-05T20:51:36.599Z,4.32
2022-12-05T20:54:03.824Z,4.32
2022-12-05T20:56:32.171Z,4.37
2022-12-05T20:59:01.736Z,4.35
2022-12-05T21:01:30.309Z,4.24
2022-12-05T21:03:57.513Z,4.18
2022-12-05T21:06:29.937Z,4.14
2022-12-05T21:08:57.482Z,4.08
2022-12-05T21:11:25.763Z,4.15
2022-12-05T21:13:55.657Z,4.17
2022-12-05T21:16:23.239Z,4.21
2022-12-05T21:18:51.195Z,4.26
2022-12-05T21:21:23.497Z,4.25
2022-12-05T21:23:59.526Z,4.27
2022-12-05T21:26:28.528Z,4.28
2022-12-05T21:28:56.402Z,4.29
2022-12-05T21:31:28.711Z,4.32
2022-12-05T21:33:58.441Z,4.33
2022-12-05T21:36:26.776Z,4.31
2022-12-05T21:38:56.350Z,4.31
2022-12-05T21:41:25.364Z,4.30
2022-12-05T21:43:55.340Z,4.23
2022-12-05T21:46:26.448Z,4.15
2022-12-05T21:48:53.944Z,4.07
2022-12-05T21:51:21.798Z,4.01
2022-12-05T21:53:50.605Z,3.99
2022-12-05T21:56:22.663Z,4.04
2022-12-05T21:58:50.441Z,4.06
2022-12-05T22:01:28.588Z,4.04
2022-12-05T22:04:00.795Z,4.02
2022-12-05T22:06:29.864Z,4.02
2022-12-05T22:08:56.653Z,3.99
2022-12-05T22:11:23.756Z,3.91
2022-12-05T22:13:51.739Z,3.89
2022-12-05T22:16:19.218Z,3.86
2022-12-05T22:18:46.814Z,3.82
2022-12-05T22:21:19.722Z,3.79
2022-12-05T22:23:47.432Z,3.81
2022-12-05T22:26:19.281Z,3.81
2022-12-05T22:28:46.630Z,3.82
2022-12-05T22:31:16.123Z,3.82
2022-12-05T22:33:44.700Z,3.85
2022-12-05T22:36:13.747Z,3.83
2022-12-05T22:38:43.409Z,3.79
2022-12-05T22:41:15.759Z,3.82
2022-12-05T22:43:44.527Z,3.80
2022-12-05T22:46:14.077Z,3.78
2022-12-05T22:48:41.333Z,3.83
2022-12-05T22:51:08.705Z,3.86
2022-12-05T22:53:35.784Z,3.75
2022-12-05T22:56:08.368Z,3.62
2022-12-05T22:58:36.185Z,3.57
2022-12-05T23:01:21.408Z,3.57
2022-12-05T23:03:49.995Z,3.57
2022-12-05T23:06:18.205Z,3.49
2022-12-05T23:08:49.934Z,3.42
2022-12-05T23:11:18.708Z,3.36
2022-12-05T23:13:46.931Z,3.32
2022-12-05T23:16:22.747Z,3.31
2022-12-05T23:18:51.043Z,3.33
2022-12-05T23:21:21.086Z,3.45
2022-12-05T23:23:49.274Z,3.53
2022-12-05T23:26:17.536Z,3.52
2022-12-05T23:28:44.861Z,3.46
2022-12-05T23:31:12.897Z,3.45
2022-12-05T23:33:39.980Z,3.40
2022-12-05T23:36:07.414Z,3.39
2022-12-05T23:38:35.409Z,3.34
2022-12-05T23:41:08.121Z,3.26
2022-12-05T23:43:35.959Z,3.20
2022-12-05T23:46:04.984Z,3.25
2022-12-05T23:48:32.160Z,3.31
2022-12-05T23:51:08.215Z,3.33
2022-12-05T23:53:37.385Z,3.31
2022-12-05T23:56:09.690Z,3.36
2022-12-05T23:58:36.460Z,3.35
